Terminal Aerodrome Forecast
Issued by NWS Mt. Holly, NJ

Home | Current Version | Previous Version | Text Only | Print | Product List | Glossary On
Versions: 1 2 3 4 5 6 7 8 9 10 11 12 13 14 15 16 17 18 19 20 21 22 23 24
000
FTUS41 KPHI 052325
TAFRDG
TAF
KRDG 052325Z 0600/0624 24003KT P6SM FEW040 BKN250
     FM060500 VRB03KT P6SM SCT020 BKN200
     FM060800 VRB03KT 4SM BR BKN020
     FM061300 12005KT P6SM SCT030 BKN080
     FM061600 14007KT P6SM VCSH FEW030 BKN050=

USA.gov is the U.S. government's official web portal to all federal, state and local government web resources and services.